Beech Grove, Indiana
Current Conditions -  °F | °C
As of 10:54 AM on Thursday 29 Jan 2015 (Local Time) from KIND Reporting Station
Overcast Overcast  
Wind Chill: 28°   Ceiling: 1600
Heat Index: 39°   Visibility: 8mi
Dew Point: 34°   Wind: 23mph
Humidity: 82%   Direction: 270°W
Pressure: 29.83"   Gusts: 32mph
Location:  39.72°N, 86.09°W
Report Text: KIND 291554Z 27020G28KT 8SM BKN016 OVC021 04/01 A2983 RMK AO2 PK WND 25032/1508 SLP108 T00390011
Loading
Personal Weather Stations






























Interactive Weather Map New forecast layout! Learn more

10-Day Weather Forecast

Advertisements
Track Severe Weather on mobile